Time;durP1;ratioP1;P1;durP2;ratioP2;P2;SDS_P1;SDS_P2;PMS_P1;PMS_P2;Temp;Humidity;BMP_temperature;BMP_pressure;BME280_temperature;BME280_humidity;BME280_pressure;Samples;Min_cycle;Max_cycle;Signal;HPM_P1;HPM_P2
2021/01/21 00:00:37;;;;;;;73.40;27.37;;;;;;;-7.73;82.85;100845.89;1633002;86;21182;-49
2021/01/21 00:03:05;;;;;;;73.87;28.45;;;;;;;-7.68;82.89;100842.47;1635574;87;21149;-49
2021/01/21 00:05:33;;;;;;;79.58;29.37;;;;;;;-7.64;82.83;100839.92;1616832;88;22859;-48
2021/01/21 00:08:02;;;;;;;69.05;26.23;;;;;;;-7.59;82.83;100833.48;1614921;87;21040;-49
2021/01/21 00:10:29;;;;;;;73.25;28.23;;;;;;;-7.53;82.75;100835.20;1633579;87;21163;-48
2021/01/21 00:12:57;;;;;;;66.95;26.30;;;;;;;-7.48;82.69;100846.34;1631668;87;21172;-49
2021/01/21 00:15:25;;;;;;;68.22;28.65;;;;;;;-7.45;82.55;100840.77;1634651;86;21183;-48
2021/01/21 00:17:52;;;;;;;66.80;26.42;;;;;;;-7.42;82.49;100844.62;1633029;87;22025;-49
2021/01/21 00:20:20;;;;;;;67.35;26.48;;;;;;;-7.37;82.46;100835.59;1634430;87;21206;-49
2021/01/21 00:22:48;;;;;;;67.80;26.82;;;;;;;-7.35;82.46;100840.31;1633104;87;21170;-49
2021/01/21 00:25:15;;;;;;;70.10;30.05;;;;;;;-7.32;82.44;100838.18;1636192;86;21147;-49
2021/01/21 00:27:43;;;;;;;70.67;27.30;;;;;;;-7.30;82.43;100844.18;1636677;87;21882;-49
2021/01/21 00:30:11;;;;;;;69.25;28.92;;;;;;;-7.27;82.50;100849.33;1636649;87;21421;-49
2021/01/21 00:32:39;;;;;;;65.90;26.23;;;;;;;-7.23;82.47;100843.73;1636662;86;21979;-49
2021/01/21 00:35:07;;;;;;;71.65;28.40;;;;;;;-7.19;82.35;100839.88;1636699;87;21206;-49
2021/01/21 00:37:36;;;;;;;80.92;30.02;;;;;;;-7.18;82.17;100833.87;1636706;87;22123;-49
2021/01/21 00:40:06;;;;;;;67.45;25.35;;;;;;;-7.19;82.19;100827.44;1636520;87;21159;-49
2021/01/21 00:42:33;;;;;;;65.80;28.17;;;;;;;-7.19;82.24;100821.88;1636233;87;22179;-49
2021/01/21 00:45:01;;;;;;;69.62;25.65;;;;;;;-7.19;82.27;100830.00;1635692;87;21159;-49
2021/01/21 00:47:29;;;;;;;69.27;29.32;;;;;;;-7.17;82.27;100820.16;1635644;87;21163;-49
2021/01/21 00:49:57;;;;;;;61.75;26.70;;;;;;;-7.12;82.17;100821.42;1635543;87;21175;-49
2021/01/21 00:52:25;;;;;;;60.98;23.57;;;;;;;-7.10;82.12;100821.43;1635635;87;21508;-49
2021/01/21 00:55:12;;;;;;;80.92;29.77;;;;;;;-7.09;82.14;100821.41;1636828;86;21993;-49
2021/01/21 00:57:41;;;;;;;62.95;24.95;;;;;;;-7.07;82.12;100818.85;1636330;87;21981;-49
2021/01/21 01:00:10;;;;;;;62.58;25.97;;;;;;;-7.09;82.15;100814.98;1635444;86;21203;-49
2021/01/21 01:02:39;;;;;;;67.78;27.25;;;;;;;-7.07;82.12;100814.55;1635214;86;21179;-48
2021/01/21 01:05:28;;;;;;;63.83;23.02;;;;;;;-7.06;82.17;100813.69;1626947;87;21579;-49
2021/01/21 01:07:56;;;;;;;62.55;26.85;;;;;;;-7.03;82.12;100813.67;1636530;87;21737;-49
2021/01/21 01:10:25;;;;;;;68.83;25.88;;;;;;;-7.03;82.13;100801.26;1635807;86;21179;-49
2021/01/21 01:12:53;;;;;;;60.75;26.02;;;;;;;-7.01;82.14;100796.52;1623668;87;21167;-49
2021/01/21 01:15:29;;;;;;;61.98;23.40;;;;;;;-7.00;82.12;100798.68;1635635;87;21151;-48
2021/01/21 01:17:57;;;;;;;66.72;27.50;;;;;;;-6.98;82.11;100802.95;1619165;87;21133;-48
2021/01/21 01:20:25;;;;;;;73.80;28.30;;;;;;;-6.97;82.03;100804.66;1636210;87;22014;-49
2021/01/21 01:22:53;;;;;;;72.22;28.90;;;;;;;-6.95;81.97;100794.38;1608556;86;21226;-49
2021/01/21 01:25:22;;;;;;;79.50;31.25;;;;;;;-6.95;81.90;100798.23;1636662;86;22011;-48
2021/01/21 01:27:50;;;;;;;72.25;29.00;;;;;;;-6.95;81.96;100789.23;1619795;88;21156;-48
2021/01/21 01:30:19;;;;;;;68.22;27.02;;;;;;;-6.94;81.92;100794.80;1636984;86;21188;-48
2021/01/21 01:32:48;;;;;;;69.10;26.62;;;;;;;-6.93;81.94;100790.08;1635570;87;21397;-49
2021/01/21 01:35:17;;;;;;;66.15;27.45;;;;;;;-6.88;81.91;100792.63;1618336;87;21191;-48
2021/01/21 01:37:45;;;;;;;67.70;26.25;;;;;;;-6.87;81.74;100790.47;1619280;87;21179;-49
2021/01/21 01:40:17;;;;;;;67.82;28.05;;;;;;;-6.87;81.71;100795.63;1619413;87;21179;-49
2021/01/21 01:42:47;;;;;;;64.00;25.62;;;;;;;-6.86;81.73;100776.74;1618846;87;22175;-49
2021/01/21 01:45:16;;;;;;;68.05;28.02;;;;;;;-6.83;81.77;100769.85;1619114;87;22149;-49
2021/01/21 01:47:46;;;;;;;69.53;29.42;;;;;;;-6.81;81.60;100756.98;1608458;87;21201;-49
2021/01/21 01:50:15;;;;;;;62.85;27.40;;;;;;;-6.80;81.63;100757.83;1623626;87;21195;-49
2021/01/21 01:52:44;;;;;;;57.90;22.20;;;;;;;-6.77;81.72;100761.67;1624671;87;21485;-49
2021/01/21 01:55:16;;;;;;;60.50;22.25;;;;;;;-6.74;81.72;100759.96;1624438;87;21191;-49
2021/01/21 01:57:50;;;;;;;58.35;24.55;;;;;;;-6.73;81.72;100762.96;1624142;87;21345;-49
2021/01/21 02:00:19;;;;;;;68.40;28.02;;;;;;;-6.73;81.60;100755.66;1617589;85;21671;-49
2021/01/21 02:02:49;;;;;;;74.42;28.60;;;;;;;-6.74;82.10;100760.38;1628167;85;21655;-50
2021/01/21 02:05:19;;;;;;;62.48;25.50;;;;;;;-6.76;82.22;100755.25;1624644;87;21656;-49
2021/01/21 02:07:48;;;;;;;72.97;26.75;;;;;;;-6.78;82.23;100753.11;1613297;87;21622;-49
2021/01/21 02:10:17;;;;;;;70.87;29.72;;;;;;;-6.75;82.37;100754.80;1624668;86;22777;-49
2021/01/21 02:13:42;;;;;;;66.57;33.33;;;;;;;-6.67;82.36;100751.77;1820389;77;29644;-49
2021/01/21 02:17:04;;;;;;;58.55;25.05;;;;;;;-6.64;82.21;100754.77;1781446;78;21193;-49
2021/01/21 02:20:17;;;;;;;65.55;25.92;;;;;;;-6.57;82.03;100756.00;1851407;76;29342;-49
2021/01/21 02:23:26;;;;;;;66.97;26.33;;;;;;;-6.60;82.09;100754.73;1815711;77;21088;-48
2021/01/21 02:26:06;;;;;;;70.12;25.92;;;;;;;-6.59;82.07;100749.16;1804304;77;23380;-49
2021/01/21 02:28:58;;;;;;;62.95;25.60;;;;;;;-6.56;82.19;100746.57;1795782;77;20990;-49
2021/01/21 02:31:54;;;;;;;58.58;22.42;;;;;;;-6.54;82.24;100746.13;1809689;77;20982;-49
2021/01/21 02:34:24;;;;;;;61.08;22.32;;;;;;;-6.52;82.29;100742.67;1793796;77;21601;-49
2021/01/21 02:36:55;;;;;;;62.15;26.55;;;;;;;-6.53;82.40;100739.67;1819149;77;21005;-49
2021/01/21 02:39:50;;;;;;;64.12;26.55;;;;;;;-6.53;82.52;100728.53;1816302;77;21585;-49
2021/01/21 02:42:18;;;;;;;65.03;26.85;;;;;;;-6.51;82.53;100731.95;1800651;78;21011;-49
2021/01/21 02:44:47;;;;;;;65.30;26.35;;;;;;;-6.49;82.58;100726.77;1811739;77;21129;-49
2021/01/21 02:47:15;;;;;;;65.85;25.10;;;;;;;-6.46;82.49;100725.05;1807808;77;20963;-49
2021/01/21 02:49:49;;;;;;;65.67;26.33;;;;;;;-6.45;82.36;100724.19;1821019;77;20923;-49
2021/01/21 02:52:37;;;;;;;66.40;25.95;;;;;;;-6.44;82.45;100712.15;1715826;80;22524;-49
2021/01/21 02:55:10;;;;;;;60.38;23.27;;;;;;;-6.43;82.45;100717.31;1754796;79;21777;-49
2021/01/21 02:57:51;;;;;;;54.40;23.65;;;;;;;-6.41;82.34;100715.58;1756223;80;21184;-49
2021/01/21 03:00:19;;;;;;;59.08;25.10;;;;;;;-6.36;82.36;100719.39;1766687;80;20993;-49
2021/01/21 03:02:50;;;;;;;61.85;22.48;;;;;;;-6.32;82.33;100721.50;1770332;80;21575;-49
2021/01/21 03:05:18;;;;;;;;;;;;;;;-6.28;82.19;100718.03;1753898;80;21380;-50
2021/01/21 03:07:45;;;;;;;60.23;22.62;;;;;;;-6.29;82.14;100726.21;1762425;80;20564;-50
2021/01/21 03:10:19;;;;;;;53.58;22.87;;;;;;;-6.28;82.15;100710.31;1767064;80;21898;-49
2021/01/21 03:12:55;;;;;;;56.50;23.87;;;;;;;-6.26;82.20;100717.59;1754602;80;22121;-50
2021/01/21 03:15:25;;;;;;;62.67;25.52;;;;;;;-6.23;82.17;100716.28;1745287;81;20980;-49
2021/01/21 03:17:54;;;;;;;57.30;25.05;;;;;;;-6.23;82.24;100716.28;1740058;81;21944;-49
2021/01/21 03:20:24;;;;;;;60.78;23.38;;;;;;;-6.20;82.23;100719.28;1710331;83;21600;-50
2021/01/21 03:22:52;;;;;;;53.78;23.32;;;;;;;-6.20;82.27;100723.98;1710429;83;21139;-49
2021/01/21 03:25:20;;;;;;;47.78;21.42;;;;;;;-6.15;82.23;100722.23;1660503;84;21146;-49
2021/01/21 03:27:49;;;;;;;61.23;26.17;;;;;;;-6.13;82.16;100721.79;1743079;80;21121;-49
2021/01/21 03:30:20;;;;;;;59.80;23.57;;;;;;;-6.12;82.21;100718.34;1757788;80;21329;-49
2021/01/21 03:32:49;;;;;;;58.90;24.72;;;;;;;-6.10;82.25;100725.63;1757356;80;21007;-49
2021/01/21 03:35:17;;;;;;;54.23;22.52;;;;;;;-6.06;82.28;100716.17;1757787;80;21536;-50
2021/01/21 03:37:47;;;;;;;62.08;23.05;;;;;;;-6.04;82.29;100707.99;1758567;80;21176;-49
2021/01/21 03:40:16;;;;;;;61.18;26.00;;;;;;;-6.02;82.38;100711.83;1759217;80;22067;-48
2021/01/21 03:42:45;;;;;;;58.92;25.17;;;;;;;-5.98;82.35;100713.48;1758948;80;21371;-48
2021/01/21 03:45:29;;;;;;;61.50;25.80;;;;;;;-5.92;82.28;100700.54;1844489;76;28056;-49
2021/01/21 03:47:59;;;;;;;64.03;24.95;;;;;;;-5.94;82.36;100703.15;1816119;77;21684;-49
2021/01/21 03:50:27;;;;;;;53.83;23.38;;;;;;;-5.92;82.42;100703.12;1838782;77;21275;-49
2021/01/21 03:52:56;;;;;;;60.52;23.83;;;;;;;-5.88;82.50;100707.38;1812833;77;20999;-49
2021/01/21 03:55:25;;;;;;;56.75;23.98;;;;;;;-5.84;82.47;100703.91;1834238;77;21408;-48
2021/01/21 03:57:55;;;;;;;57.15;23.57;;;;;;;-5.82;82.41;100701.30;1838059;77;21752;-49
2021/01/21 04:00:31;;;;;;;59.10;22.60;;;;;;;-5.79;82.35;100701.27;1822626;77;20964;-49
2021/01/21 04:03:00;;;;;;;55.95;24.77;;;;;;;-5.77;82.26;100704.69;1839245;77;21345;-49
2021/01/21 04:05:32;;;;;;;49.58;24.18;;;;;;;-5.77;82.26;100704.69;1815686;77;21633;-49
2021/01/21 04:08:01;;;;;;;61.77;25.55;;;;;;;-5.73;82.29;100702.95;1810055;77;20986;-48
2021/01/21 04:10:31;;;;;;;57.65;23.90;;;;;;;-5.69;82.27;100693.87;1835927;77;21118;-48
2021/01/21 04:13:06;;;;;;;60.58;25.97;;;;;;;-5.70;82.21;100697.77;1827865;77;20971;-49
2021/01/21 04:15:35;;;;;;;62.43;26.37;;;;;;;-5.71;82.23;100700.77;1775584;80;22079;-49
2021/01/21 04:18:03;;;;;;;58.15;24.87;;;;;;;-5.71;82.31;100693.48;1743483;80;21031;-49
2021/01/21 04:20:33;;;;;;;66.40;24.12;;;;;;;-5.70;82.33;100694.73;1786255;78;21008;-49
2021/01/21 04:23:01;;;;;;;64.97;24.75;;;;;;;-5.67;82.33;100696.45;1803820;78;21135;-49
2021/01/21 04:25:29;;;;;;;55.00;24.30;;;;;;;-5.64;82.29;100701.57;1781193;78;20961;-48
2021/01/21 04:27:57;;;;;;;56.98;24.23;;;;;;;-5.60;82.33;100695.94;1803807;78;21172;-49
2021/01/21 04:30:25;;;;;;;67.12;26.97;;;;;;;-5.57;82.32;100691.61;1803785;78;21968;-49
2021/01/21 04:32:54;;;;;;;57.00;24.65;;;;;;;-5.55;82.32;100688.58;1803551;78;21016;-48
2021/01/21 04:35:22;;;;;;;59.83;25.62;;;;;;;-5.53;82.29;100693.30;1803750;78;22168;-49
2021/01/21 04:37:51;;;;;;;63.20;26.85;;;;;;;-5.51;82.28;100697.13;1803617;78;20981;-49
2021/01/21 04:40:25;;;;;;;62.33;25.10;;;;;;;-5.48;82.26;100712.58;1803248;78;21196;-49
2021/01/21 04:42:54;;;;;;;46.25;21.85;;;;;;;-5.46;82.21;100703.09;1802588;78;21143;-48
2021/01/21 04:45:23;;;;;;;48.63;21.33;;;;;;;-5.47;82.28;100698.80;1748769;79;21017;-49
2021/01/21 04:47:50;;;;;;;59.30;24.30;;;;;;;-5.46;82.42;100687.61;1801321;79;21088;-49
2021/01/21 04:50:23;;;;;;;65.32;27.25;;;;;;;-5.47;82.50;100686.36;1774600;80;21133;-49
2021/01/21 04:53:03;;;;;;;59.38;24.35;;;;;;;-5.44;82.62;100682.00;1873617;76;28370;-49
2021/01/21 04:55:41;;;;;;;56.75;25.17;;;;;;;-5.47;82.72;100681.20;1841228;77;21059;-49
2021/01/21 04:58:38;;;;;;;61.45;25.32;;;;;;;-5.44;82.87;100675.55;1787644;79;29507;-49
2021/01/21 05:01:06;;;;;;;60.20;24.75;;;;;;;-5.46;82.93;100675.17;1783487;78;20960;-50
2021/01/21 05:03:35;;;;;;;60.08;25.43;;;;;;;-5.41;82.99;100690.16;1780729;78;22360;-50
2021/01/21 05:06:20;;;;;;;66.72;26.70;;;;;;;-5.38;82.97;100691.42;1767586;78;21020;-50
2021/01/21 05:08:51;;;;;;;65.50;25.57;;;;;;;-5.36;82.98;100695.67;1755460;80;21022;-50
2021/01/21 05:11:23;;;;;;;63.25;26.70;;;;;;;-5.35;83.00;100705.13;1786392;79;21360;-49
2021/01/21 05:13:55;;;;;;;55.92;23.57;;;;;;;-5.32;83.06;100693.06;1783348;78;21108;-49
2021/01/21 05:16:43;;;;;;;64.20;25.92;;;;;;;-5.30;83.10;100688.73;1795402;78;21404;-49
2021/01/21 05:19:23;;;;;;;64.37;26.75;;;;;;;-5.24;83.13;100693.83;1865845;75;28732;-49
2021/01/21 05:21:53;;;;;;;56.73;26.27;;;;;;;-5.26;83.09;100695.12;1766322;78;21201;-49
2021/01/21 05:24:25;;;;;;;61.88;27.58;;;;;;;-5.23;83.10;100699.41;1820594;77;21195;-49
2021/01/21 05:27:04;;;;;;;61.05;23.95;;;;;;;-5.14;83.07;100699.72;1840721;76;28724;-49
2021/01/21 05:29:45;;;;;;;64.90;26.57;;;;;;;-5.16;82.97;100698.88;1822959;77;20969;-50
2021/01/21 05:32:14;;;;;;;57.55;23.57;;;;;;;-5.13;82.91;100706.16;1804519;77;21191;-50
2021/01/21 05:34:44;;;;;;;60.78;26.17;;;;;;;-5.13;82.85;100702.30;1804796;78;20975;-50
2021/01/21 05:37:15;;;;;;;67.55;26.10;;;;;;;-5.12;82.80;100709.59;1817893;77;20973;-49
2021/01/21 05:39:59;;;;;;;70.87;29.27;;;;;;;-5.12;82.84;100702.72;1812047;77;20971;-49
2021/01/21 05:42:45;;;;;;;64.15;26.45;;;;;;;-5.09;82.82;100697.94;1788493;77;21009;-49
2021/01/21 05:45:30;;;;;;;61.90;26.02;;;;;;;-5.03;82.79;100708.19;1842351;76;29440;-49
2021/01/21 05:48:03;;;;;;;61.98;25.12;;;;;;;-5.04;82.75;100715.51;1803722;77;21678;-49
2021/01/21 05:50:33;;;;;;;60.95;25.88;;;;;;;-5.05;82.71;100709.52;1813252;77;22416;-49
2021/01/21 05:53:03;;;;;;;55.48;23.87;;;;;;;-5.04;82.71;100713.80;1743796;79;21069;-49
2021/01/21 05:55:31;;;;;;;59.15;24.85;;;;;;;-5.02;82.74;100706.02;1706637;80;22715;-49
2021/01/21 05:58:01;;;;;;;59.33;25.57;;;;;;;-4.99;82.74;100713.73;1749459;80;21188;-49
2021/01/21 06:00:30;;;;;;;68.83;28.60;;;;;;;-4.95;82.67;100720.56;1729836;80;21213;-49
2021/01/21 06:03:02;;;;;;;62.60;26.07;;;;;;;-4.92;82.63;100720.52;1724400;81;21834;-48
2021/01/21 06:05:40;;;;;;;52.70;23.18;;;;;;;-4.84;82.62;100716.98;1870206;76;28357;-49
2021/01/21 06:08:08;;;;;;;70.65;28.65;;;;;;;-4.86;82.56;100720.03;1816579;77;21061;-49
2021/01/21 06:10:36;;;;;;;61.20;24.63;;;;;;;-4.85;82.54;100715.28;1773278;77;21403;-49
2021/01/21 06:13:07;;;;;;;60.63;25.77;;;;;;;-4.84;82.59;100715.70;1805981;77;21196;-48
2021/01/21 06:15:36;;;;;;;55.33;23.80;;;;;;;-4.82;82.55;100720.41;1781573;78;21726;-49
2021/01/21 06:18:04;;;;;;;60.98;25.82;;;;;;;-4.79;82.57;100722.95;1785609;78;20931;-49
2021/01/21 06:20:44;;;;;;;62.43;27.35;;;;;;;-4.71;82.50;100718.53;1854629;76;28243;-49
2021/01/21 06:23:14;;;;;;;67.22;26.73;;;;;;;-4.74;82.46;100714.25;1791078;77;22186;-49
2021/01/21 06:25:44;;;;;;;64.32;28.40;;;;;;;-4.70;82.47;100713.79;1731851;78;21802;-49
2021/01/21 06:28:11;;;;;;;55.88;25.12;;;;;;;-4.68;82.40;100714.63;1811886;77;21030;-49
2021/01/21 06:30:39;;;;;;;79.20;28.27;;;;;;;-4.63;82.45;100706.80;1811908;77;21172;-49
2021/01/21 06:33:07;;;;;;;60.73;28.02;;;;;;;-4.59;82.33;100703.29;1776532;78;22496;-49
2021/01/21 06:35:41;;;;;;;64.80;25.30;;;;;;;-4.57;82.27;100697.66;1810388;77;21476;-49
2021/01/21 06:38:13;;;;;;;72.40;27.60;;;;;;;-4.54;82.22;100702.79;1747632;80;21548;-49
2021/01/21 06:40:46;;;;;;;64.47;26.77;;;;;;;-4.50;82.18;100700.58;1746100;80;21197;-49
2021/01/21 06:43:38;;;;;;;60.98;26.62;;;;;;;-4.43;82.03;100709.53;1744879;80;22532;-48
2021/01/21 06:46:07;;;;;;;67.20;28.40;;;;;;;-4.40;82.05;100706.48;1747641;80;21204;-49
2021/01/21 06:48:36;;;;;;;66.20;26.52;;;;;;;-4.36;82.02;100702.97;1752304;80;22141;-49
2021/01/21 06:51:09;;;;;;;65.92;25.62;;;;;;;-4.32;81.91;100700.76;1745265;80;21713;-49
2021/01/21 06:53:46;;;;;;;64.00;25.00;;;;;;;-4.29;81.82;100707.59;1740308;80;21926;-49
2021/01/21 06:56:14;;;;;;;65.10;28.27;;;;;;;-4.26;81.68;100698.50;1752753;80;21117;-48
2021/01/21 06:58:47;;;;;;;64.10;28.10;;;;;;;-4.19;81.71;100703.98;1745004;80;23339;-49
2021/01/21 07:01:43;;;;;;;66.75;27.77;;;;;;;-4.13;81.73;100707.35;1748073;80;21139;-49
2021/01/21 07:04:18;;;;;;;58.33;28.25;;;;;;;-4.04;81.59;100700.28;1745123;80;21258;-49
2021/01/21 07:06:58;;;;;;;61.58;27.58;;;;;;;-3.95;81.34;100703.17;1743663;80;21140;-49
2021/01/21 07:09:26;;;;;;;59.98;26.00;;;;;;;-3.88;81.20;100696.16;1744096;80;20971;-49
2021/01/21 07:11:57;;;;;;;69.90;28.45;;;;;;;-3.84;81.04;100690.05;1746722;80;21136;-49
2021/01/21 07:14:27;;;;;;;;;;;;;;;-3.79;80.90;100688.69;1746133;81;21598;-49
2021/01/21 07:17:02;;;;;;;64.87;27.77;;;;;;;-3.75;80.75;100685.17;1750566;81;22605;-49
2021/01/21 07:19:40;;;;;;;67.90;29.00;;;;;;;-3.74;80.66;100681.25;1751660;81;21938;-48
2021/01/21 07:22:20;;;;;;;68.83;27.07;;;;;;;-3.68;80.60;100683.31;1756513;80;21552;-48
2021/01/21 07:25:00;;;;;;;68.70;29.60;;;;;;;-3.64;80.56;100682.38;1732222;80;21144;-48
2021/01/21 07:27:29;;;;;;;73.92;30.20;;;;;;;-3.61;80.21;100681.86;1759035;80;20951;-49
2021/01/21 07:30:23;;;;;;;62.05;28.05;;;;;;;-3.61;80.23;100682.31;1752597;80;21156;-49
2021/01/21 07:33:22;;;;;;;69.30;30.97;;;;;;;-3.56;80.27;100684.37;1749756;80;22331;-49
2021/01/21 07:35:51;;;;;;;69.40;28.75;;;;;;;-3.53;80.25;100670.09;1749976;80;21124;-49
2021/01/21 07:38:46;;;;;;;65.08;28.73;;;;;;;-3.48;80.13;100672.57;1752667;80;21632;-47
2021/01/21 07:41:47;;;;;;;70.37;30.32;;;;;;;-3.44;80.16;100672.92;1739408;80;21003;-48
2021/01/21 07:44:14;;;;;;;65.22;28.77;;;;;;;-3.38;80.05;100668.09;1745556;80;21195;-48
2021/01/21 07:46:42;;;;;;;65.25;29.15;;;;;;;-3.35;79.88;100661.09;1754863;80;20998;-49
2021/01/21 07:49:26;;;;;;;70.55;30.90;;;;;;;-3.28;79.92;100663.14;1757767;80;21964;-49
2021/01/21 07:52:05;;;;;;;69.80;28.50;;;;;;;-3.24;79.96;100655.72;1743919;80;21149;-48
2021/01/21 07:54:48;;;;;;;73.15;31.48;;;;;;;-3.17;79.90;100659.02;1757337;80;20995;-49
2021/01/21 07:57:24;;;;;;;65.60;29.92;;;;;;;-3.11;79.95;100661.02;1745089;80;21362;-48
2021/01/21 08:00:03;;;;;;;68.40;30.00;;;;;;;-3.01;79.63;100656.52;1748197;80;21058;-49
2021/01/21 08:02:48;;;;;;;69.87;29.20;;;;;;;-2.87;79.54;100659.25;1751554;80;21010;-49
2021/01/21 08:05:20;;;;;;;70.72;31.60;;;;;;;-2.87;79.54;100659.25;1756242;80;21133;-49
2021/01/21 08:07:55;;;;;;;67.37;29.70;;;;;;;-2.77;79.24;100659.89;1755274;80;22083;-49
2021/01/21 08:10:27;;;;;;;68.97;29.82;;;;;;;-2.69;79.32;100656.25;1758089;80;21564;-49
2021/01/21 08:12:57;;;;;;;69.85;30.15;;;;;;;-2.60;79.02;100660.78;1759764;80;21129;-49
2021/01/21 08:15:26;;;;;;;67.72;30.23;;;;;;;-2.54;78.70;100661.52;1757949;80;22113;-49
2021/01/21 08:17:54;;;;;;;74.95;33.40;;;;;;;-2.46;78.35;100661.78;1756359;80;20990;-49
2021/01/21 08:20:28;;;;;;;68.57;31.48;;;;;;;-2.40;78.37;100661.64;1747457;80;21164;-49
2021/01/21 08:23:08;;;;;;;76.45;34.43;;;;;;;-2.30;78.37;100660.95;1756638;80;22495;-48
2021/01/21 08:25:48;;;;;;;68.97;31.05;;;;;;;-2.23;77.84;100664.67;1747834;80;21022;-49
2021/01/21 08:28:20;;;;;;;62.70;28.60;;;;;;;-2.17;77.68;100658.47;1749534;80;21116;-48
2021/01/21 08:30:52;;;;;;;63.08;29.25;;;;;;;-2.12;77.50;100656.61;1754089;80;21137;-48
2021/01/21 08:33:23;;;;;;;71.15;32.73;;;;;;;-2.05;77.50;100657.30;1744696;80;21593;-48
2021/01/21 08:35:59;;;;;;;73.87;34.80;;;;;;;-1.99;77.29;100664.09;1746838;80;21579;-48
2021/01/21 08:38:39;;;;;;;72.40;31.70;;;;;;;-1.94;77.13;100656.58;1745414;81;21008;-51
2021/01/21 08:41:07;;;;;;;79.58;36.42;;;;;;;-1.89;77.04;100662.09;1743358;81;20986;-49
2021/01/21 08:43:38;;;;;;;65.67;31.12;;;;;;;-1.83;76.91;100656.31;1746325;81;21982;-50
2021/01/21 08:46:20;;;;;;;;;;;;;;;-1.80;76.74;100652.77;1743979;80;21109;-49
2021/01/21 08:48:49;;;;;;;74.53;32.53;;;;;;;-1.76;76.65;100649.67;1744436;80;21381;-48
2021/01/21 08:51:35;;;;;;;72.85;33.08;;;;;;;-1.75;76.45;100650.91;1765346;80;20990;-49
2021/01/21 08:54:23;;;;;;;76.62;32.70;;;;;;;-1.73;76.47;100647.83;1742683;81;20947;-49
2021/01/21 08:57:12;;;;;;;76.12;34.33;;;;;;;-1.68;76.25;100651.15;1744625;81;21149;-49
2021/01/21 08:59:41;;;;;;;79.67;35.15;;;;;;;-1.66;76.23;100646.77;1745191;81;20987;-49
2021/01/21 09:02:09;;;;;;;72.75;31.95;;;;;;;-1.59;76.33;100647.90;1738331;81;21641;-48
2021/01/21 09:04:38;;;;;;;74.90;32.23;;;;;;;-1.52;76.08;100639.89;1742097;80;21014;-50
2021/01/21 09:07:08;;;;;;;84.85;35.70;;;;;;;-1.44;76.03;100646.18;1741728;81;20995;-48
2021/01/21 09:09:39;;;;;;;74.20;32.48;;;;;;;-1.36;75.88;100648.55;1741253;81;21122;-49
2021/01/21 09:12:22;;;;;;;67.03;30.15;;;;;;;-1.29;75.65;100647.48;1743536;81;21136;-49
2021/01/21 09:15:09;;;;;;;72.72;32.58;;;;;;;-1.24;75.29;100649.50;1737371;81;21395;-48
2021/01/21 09:17:39;;;;;;;72.05;34.45;;;;;;;-1.17;75.24;100650.62;1728524;81;22006;-48
2021/01/21 09:20:30;;;;;;;75.93;34.57;;;;;;;-1.16;74.91;100647.13;1744886;80;21122;-47
2021/01/21 09:23:20;;;;;;;73.67;32.88;;;;;;;-1.10;74.93;100653.44;1757448;80;21828;-47
2021/01/21 09:25:48;;;;;;;73.55;34.10;;;;;;;-1.06;74.68;100642.90;1750253;81;22223;-47
2021/01/21 09:28:16;;;;;;;73.75;33.80;;;;;;;-0.99;74.47;100643.58;1755077;80;21253;-49
2021/01/21 09:30:44;;;;;;;79.67;35.65;;;;;;;-0.96;74.37;100643.92;1750820;81;21480;-48
2021/01/21 09:33:11;;;;;;;72.32;34.53;;;;;;;-0.96;74.25;100641.33;1753655;81;21940;-48
2021/01/21 09:35:41;;;;;;;76.72;34.83;;;;;;;-0.97;74.14;100633.13;1731182;81;21125;-48
2021/01/21 09:38:09;;;;;;;79.82;36.85;;;;;;;-0.94;74.17;100626.54;1731288;81;21126;-49
2021/01/21 09:40:38;;;;;;;70.92;33.53;;;;;;;-0.93;74.05;100625.64;1748282;80;21985;-48
2021/01/21 09:43:06;;;;;;;73.97;36.65;;;;;;;-0.91;73.97;100628.61;1743772;81;21169;-48
2021/01/21 09:45:34;;;;;;;78.05;34.15;;;;;;;-0.89;73.89;100633.75;1743456;81;21011;-49
2021/01/21 09:48:04;;;;;;;76.60;35.52;;;;;;;-0.87;73.76;100629.82;1733631;81;21051;-49
2021/01/21 09:50:32;;;;;;;81.72;35.30;;;;;;;-0.82;74.00;100630.06;1743126;81;21117;-48
2021/01/21 09:53:01;;;;;;;79.05;36.03;;;;;;;-0.71;73.83;100637.98;1725557;81;21194;-49
2021/01/21 09:55:29;;;;;;;70.47;32.40;;;;;;;-0.62;73.83;100634.66;1743621;81;21978;-47
2021/01/21 09:57:56;;;;;;;81.20;38.40;;;;;;;-0.45;73.56;100624.14;1729064;81;20979;-47
2021/01/21 10:00:24;;;;;;;74.82;35.15;;;;;;;-0.29;73.29;100629.70;1741931;81;20979;-49
2021/01/21 10:02:52;;;;;;;79.55;36.05;;;;;;;-0.09;72.93;100619.09;1737924;81;21128;-49
2021/01/21 10:05:20;;;;;;;75.52;36.23;;;;;;;0.06;72.14;100609.42;1742790;81;21261;-48
2021/01/21 10:07:48;;;;;;;76.37;34.85;;;;;;;0.22;71.78;100615.39;1741611;81;22033;-48
2021/01/21 10:10:15;;;;;;;73.17;35.45;;;;;;;0.34;71.36;100616.27;1743778;81;20991;-49
2021/01/21 10:12:44;;;;;;;68.52;32.80;;;;;;;0.41;70.82;100608.62;1743899;81;21157;-48
2021/01/21 10:15:13;;;;;;;68.22;33.85;;;;;;;0.45;70.59;100600.27;1721914;81;21007;-49
2021/01/21 10:17:41;;;;;;;69.03;33.42;;;;;;;0.47;70.42;100600.19;1750301;81;21349;-49
2021/01/21 10:20:11;;;;;;;68.12;33.92;;;;;;;0.39;70.22;100599.19;1742361;81;21122;-48
2021/01/21 10:22:39;;;;;;;71.60;32.70;;;;;;;0.32;70.22;100594.64;1742808;81;21109;-49
2021/01/21 10:25:08;;;;;;;74.47;33.38;;;;;;;0.24;70.16;100588.41;1741483;81;21170;-48
2021/01/21 10:27:38;;;;;;;65.85;31.65;;;;;;;0.25;70.51;100590.12;1741734;81;21124;-49
2021/01/21 10:30:07;;;;;;;64.70;32.70;;;;;;;0.31;70.86;100594.23;1750309;81;21196;-49
2021/01/21 10:32:36;;;;;;;67.53;32.55;;;;;;;0.43;70.73;100593.80;1745157;81;21176;-50
2021/01/21 10:35:06;;;;;;;71.62;34.13;;;;;;;0.63;70.51;100586.13;1742028;81;21145;-49
2021/01/21 10:37:33;;;;;;;75.52;33.78;;;;;;;0.75;70.02;100590.88;1746216;81;21137;-47
2021/01/21 10:40:01;;;;;;;68.05;33.90;;;;;;;0.88;69.85;100579.09;1742080;81;21657;-50
2021/01/21 10:42:28;;;;;;;65.37;31.20;;;;;;;1.04;69.71;100579.80;1739118;81;21191;-48
2021/01/21 10:44:57;;;;;;;71.97;33.78;;;;;;;1.20;69.11;100584.41;1742266;81;21148;-48
2021/01/21 10:47:25;;;;;;;66.57;33.70;;;;;;;1.26;68.59;100583.69;1738203;81;21535;-50
2021/01/21 10:49:53;;;;;;;69.20;34.80;;;;;;;1.27;68.21;100571.52;1742537;81;21129;-47
2021/01/21 10:52:21;;;;;;;65.52;33.45;;;;;;;1.27;68.10;100572.81;1742629;81;21153;-48
2021/01/21 10:54:49;;;;;;;67.25;33.45;;;;;;;1.25;67.89;100563.73;1739907;81;21184;-47
2021/01/21 10:57:17;;;;;;;67.65;32.33;;;;;;;1.23;67.71;100558.20;1738033;81;21006;-47
2021/01/21 10:59:44;;;;;;;63.58;33.20;;;;;;;1.20;68.04;100557.86;1720896;81;21615;-47
2021/01/21 11:02:12;;;;;;;68.02;33.38;;;;;;;1.17;67.87;100564.06;1739926;81;22100;-48
2021/01/21 11:04:40;;;;;;;65.25;33.38;;;;;;;1.16;68.33;100562.80;1720602;81;21633;-48
2021/01/21 11:07:08;;;;;;;68.25;31.55;;;;;;;1.24;68.31;100555.52;1729655;80;22907;-48
2021/01/21 11:09:36;;;;;;;71.05;33.65;;;;;;;1.33;68.55;100549.09;1731637;82;21179;-46
2021/01/21 11:12:06;;;;;;;67.60;34.67;;;;;;;1.42;67.96;100547.86;1748901;80;21148;-46
2021/01/21 11:14:35;;;;;;;71.95;34.83;;;;;;;1.44;67.76;100544.73;1765384;80;21429;-47
2021/01/21 11:17:03;;;;;;;65.62;34.13;;;;;;;1.52;67.70;100554.86;1758290;80;21557;-48
2021/01/21 11:19:32;;;;;;;66.42;34.03;;;;;;;1.62;67.87;100556.14;1759785;80;21155;-47
2021/01/21 11:22:00;;;;;;;64.30;32.95;;;;;;;1.74;67.52;100551.70;1741751;81;21168;-47
2021/01/21 11:24:29;;;;;;;66.35;32.83;;;;;;;1.79;67.02;100550.22;1749545;81;21620;-47
2021/01/21 11:26:57;;;;;;;60.48;32.23;;;;;;;1.83;66.72;100550.48;1749279;80;21616;-48
2021/01/21 11:29:24;;;;;;;66.02;32.63;;;;;;;1.84;66.41;100546.95;1749126;81;21153;-47
2021/01/21 11:31:55;;;;;;;64.40;33.10;;;;;;;1.75;66.19;100546.88;1751980;81;21423;-46
2021/01/21 11:34:24;;;;;;;68.12;34.53;;;;;;;1.67;66.60;100552.05;1751715;81;21942;-45
2021/01/21 11:36:52;;;;;;;70.52;35.15;;;;;;;1.57;66.85;100545.91;1750029;81;21138;-46